Allock, Kentucky
Current Conditions -  °F | °C
As of 12:55 PM on Tuesday 21 Oct 2014 (Local Time) from KI35 Reporting Station
Overcast Overcast  
Wind Chill: 14°   Ceiling: 4900
Heat Index: 14°   Visibility: 10mi
Dew Point:   Wind: 12mph
Humidity: 55%   Direction: 310°NW
Pressure: 30.02"   Gusts: 18mph
Location:  37.1842°N, 83.1053°W
Report Text: KI35 211655Z AUTO 31010G16KT 280V340 10SM SCT039 BKN049 OVC055 14/05 A3002 RMK AO1
Loading
Personal Weather Stations






























Interactive Weather Map
Tropical Storm Tracking
New forecast layout! Learn more

10-Day Weather Forecast

Advertisements
Track Severe Weather on mobile